createdAt,value
2023-05-10T00:00:19.719Z,35.34
2023-05-10T00:01:19.746Z,35.35
2023-05-10T00:02:19.930Z,35.35
2023-05-10T00:03:20.210Z,35.33
2023-05-10T00:04:19.936Z,35.38
2023-05-10T00:05:19.982Z,35.37
2023-05-10T00:06:20.037Z,35.39
2023-05-10T00:07:20.066Z,35.33
2023-05-10T00:08:20.162Z,35.34
2023-05-10T00:09:20.223Z,35.38
2023-05-10T00:10:20.257Z,35.40
2023-05-10T00:11:22.261Z,35.37
2023-05-10T00:12:20.277Z,35.38
2023-05-10T00:13:20.352Z,35.37
2023-05-10T00:14:20.301Z,35.39
2023-05-10T00:15:20.274Z,35.40
2023-05-10T00:16:20.311Z,35.37
2023-05-10T00:17:20.238Z,35.37
2023-05-10T00:18:20.264Z,35.37
2023-05-10T00:19:20.234Z,35.34
2023-05-10T00:20:20.218Z,35.37
2023-05-10T00:21:20.229Z,35.41
2023-05-10T00:22:20.238Z,35.40
2023-05-10T00:23:20.656Z,35.39
2023-05-10T00:24:20.203Z,35.42
2023-05-10T00:25:20.209Z,35.38
2023-05-10T00:26:20.204Z,35.39
2023-05-10T00:27:20.209Z,35.40
2023-05-10T00:28:20.182Z,35.40
2023-05-10T00:29:20.183Z,35.40
2023-05-10T00:30:20.153Z,35.40
2023-05-10T00:31:20.156Z,35.47
2023-05-10T00:32:20.277Z,35.44
2023-05-10T00:33:20.140Z,35.41
2023-05-10T00:34:20.174Z,35.40
2023-05-10T00:35:20.119Z,35.39
2023-05-10T00:36:20.163Z,35.45
2023-05-10T00:37:20.135Z,35.44
2023-05-10T00:38:20.115Z,35.42
2023-05-10T00:39:20.092Z,35.39
2023-05-10T00:40:20.128Z,35.38
2023-05-10T00:41:20.083Z,35.40
2023-05-10T00:42:20.101Z,35.40
2023-05-10T00:43:20.101Z,35.44
2023-05-10T00:44:20.063Z,35.46
2023-05-10T00:45:20.104Z,35.40
2023-05-10T00:46:20.124Z,35.41
2023-05-10T00:47:20.141Z,35.43
2023-05-10T00:48:20.070Z,35.44
2023-05-10T00:49:20.043Z,35.40
2023-05-10T00:50:20.087Z,35.48
2023-05-10T00:51:20.087Z,35.45
2023-05-10T00:52:20.148Z,35.45
2023-05-10T00:53:20.656Z,35.43
2023-05-10T00:54:20.260Z,35.45
2023-05-10T00:55:20.320Z,35.46
2023-05-10T00:56:20.377Z,35.44
2023-05-10T00:57:20.431Z,35.46
2023-05-10T00:58:20.470Z,35.44
2023-05-10T00:59:20.547Z,35.46
2023-05-10T01:00:20.592Z,35.43
2023-05-10T01:01:20.677Z,35.46
2023-05-10T01:02:20.744Z,35.45
2023-05-10T01:03:20.867Z,35.43
2023-05-10T01:04:20.845Z,35.50
2023-05-10T01:05:20.920Z,35.44
2023-05-10T01:06:20.935Z,35.44
2023-05-10T01:07:21.001Z,35.50
2023-05-10T01:08:21.060Z,35.46
2023-05-10T01:09:21.122Z,35.45
2023-05-10T01:10:21.158Z,35.46
2023-05-10T01:11:21.244Z,35.48
2023-05-10T01:12:21.307Z,35.43
2023-05-10T01:13:21.466Z,35.50
2023-05-10T01:14:21.433Z,35.48
2023-05-10T01:15:21.472Z,35.44
2023-05-10T01:16:21.542Z,35.45
2023-05-10T01:17:21.619Z,35.50
2023-05-10T01:18:21.673Z,35.49
2023-05-10T01:19:21.726Z,35.50
2023-05-10T01:20:21.788Z,35.51
2023-05-10T01:21:21.866Z,35.48
2023-05-10T01:22:21.914Z,35.46
2023-05-10T01:23:22.189Z,35.51
2023-05-10T01:24:22.069Z,35.49
2023-05-10T01:25:22.097Z,35.48
2023-05-10T01:26:22.150Z,35.48
2023-05-10T01:27:22.212Z,35.46
2023-05-10T01:28:22.662Z,35.49
2023-05-10T01:29:22.368Z,35.51
2023-05-10T01:30:22.558Z,35.49
2023-05-10T01:31:22.508Z,35.50
2023-05-10T01:32:22.523Z,35.52
2023-05-10T01:33:22.604Z,35.50
2023-05-10T01:34:22.667Z,35.51
2023-05-10T01:35:22.717Z,35.51
2023-05-10T01:36:22.769Z,35.47
2023-05-10T01:37:22.839Z,35.49
2023-05-10T01:38:22.897Z,35.46
2023-05-10T01:39:23.165Z,35.48
2023-05-10T01:40:23.008Z,35.50
2023-05-10T01:41:23.083Z,35.50
2023-05-10T01:42:23.156Z,35.50
2023-05-10T01:43:23.186Z,35.50
2023-05-10T01:44:23.737Z,35.51
2023-05-10T01:45:23.320Z,35.54
2023-05-10T01:46:23.437Z,35.51
2023-05-10T01:47:23.478Z,35.52
2023-05-10T01:48:23.509Z,35.47
2023-05-10T01:49:23.552Z,35.49
2023-05-10T01:50:23.634Z,35.55
2023-05-10T01:51:23.681Z,35.51
2023-05-10T01:52:23.752Z,35.54
2023-05-10T01:53:23.817Z,35.50
2023-05-10T01:54:23.914Z,35.57
2023-05-10T01:55:23.923Z,35.51
2023-05-10T01:56:24.006Z,35.51
2023-05-10T01:57:24.065Z,35.50
2023-05-10T01:58:24.079Z,35.57
2023-05-10T01:59:24.170Z,35.54
2023-05-10T02:00:24.240Z,35.49
2023-05-10T02:01:24.332Z,35.52
2023-05-10T02:02:24.425Z,35.59
2023-05-10T02:03:24.501Z,35.56
2023-05-10T02:04:24.672Z,35.52
2023-05-10T02:05:24.567Z,35.53
2023-05-10T02:06:24.621Z,35.54
2023-05-10T02:07:24.681Z,35.51
2023-05-10T02:08:24.723Z,35.52
2023-05-10T02:09:25.206Z,35.54
2023-05-10T02:10:24.872Z,35.53
2023-05-10T02:11:24.895Z,35.52
2023-05-10T02:12:24.983Z,35.55
2023-05-10T02:13:25.057Z,35.55
2023-05-10T02:14:25.119Z,35.57
2023-05-10T02:15:25.167Z,35.55
2023-05-10T02:16:25.268Z,35.55
2023-05-10T02:17:25.330Z,35.54
2023-05-10T02:18:25.333Z,35.53
2023-05-10T02:19:25.720Z,35.56
2023-05-10T02:20:26.187Z,35.52
2023-05-10T02:21:25.520Z,35.53
2023-05-10T02:22:25.592Z,35.52
2023-05-10T02:23:25.681Z,35.51
2023-05-10T02:24:26.175Z,35.52
2023-05-10T02:25:25.816Z,35.58
2023-05-10T02:26:25.846Z,35.57
2023-05-10T02:27:25.944Z,35.54
2023-05-10T02:28:26.037Z,35.56
2023-05-10T02:29:26.036Z,35.56
2023-05-10T02:30:26.108Z,35.56
2023-05-10T02:31:26.172Z,35.54
2023-05-10T02:32:26.239Z,35.56
2023-05-10T02:33:26.254Z,35.59
2023-05-10T02:34:26.705Z,35.58
2023-05-10T02:35:26.367Z,35.59
2023-05-10T02:36:26.449Z,35.56
2023-05-10T02:37:27.203Z,35.57
2023-05-10T02:38:26.550Z,35.54
2023-05-10T02:39:26.603Z,35.57
2023-05-10T02:40:28.621Z,35.56
2023-05-10T02:41:26.748Z,35.56
2023-05-10T02:42:26.840Z,35.57
2023-05-10T02:43:26.864Z,35.53
2023-05-10T02:44:27.191Z,35.57
2023-05-10T02:45:26.981Z,35.54
2023-05-10T02:46:27.111Z,35.58
2023-05-10T02:47:27.142Z,35.57
2023-05-10T02:48:27.150Z,35.60
2023-05-10T02:49:27.733Z,35.57
2023-05-10T02:50:27.289Z,35.57
2023-05-10T02:51:27.381Z,35.57
2023-05-10T02:52:27.431Z,35.59
2023-05-10T02:53:27.500Z,35.53
2023-05-10T02:54:27.696Z,35.56
2023-05-10T02:55:27.612Z,35.57
2023-05-10T02:56:27.654Z,35.57
2023-05-10T02:57:27.737Z,35.60
2023-05-10T02:58:27.796Z,35.57
2023-05-10T02:59:28.208Z,35.57
2023-05-10T03:00:27.909Z,35.57
2023-05-10T03:01:27.975Z,35.62
2023-05-10T03:02:28.085Z,35.56
2023-05-10T03:03:28.070Z,35.64
2023-05-10T03:04:28.301Z,35.58
2023-05-10T03:05:28.273Z,35.60
2023-05-10T03:06:28.262Z,35.62
2023-05-10T03:07:28.296Z,35.58
2023-05-10T03:08:28.357Z,35.63
2023-05-10T03:09:28.688Z,35.62
2023-05-10T03:10:28.540Z,35.60
2023-05-10T03:11:28.566Z,35.60
2023-05-10T03:12:28.670Z,35.56
2023-05-10T03:13:28.779Z,35.59
2023-05-10T03:14:29.208Z,35.59
2023-05-10T03:15:28.808Z,35.60
2023-05-10T03:16:28.945Z,35.63
2023-05-10T03:17:28.978Z,35.60
2023-05-10T03:18:29.021Z,35.61
2023-05-10T03:19:29.215Z,35.62
2023-05-10T03:20:29.124Z,35.59
2023-05-10T03:21:29.192Z,35.56
2023-05-10T03:22:29.253Z,35.61
2023-05-10T03:23:29.307Z,35.63
2023-05-10T03:24:29.446Z,35.61
2023-05-10T03:25:29.416Z,35.61
2023-05-10T03:26:29.524Z,35.56
2023-05-10T03:27:29.556Z,35.60
2023-05-10T03:28:29.583Z,35.58
2023-05-10T03:29:29.698Z,35.61
2023-05-10T03:30:29.711Z,35.58
2023-05-10T03:31:29.792Z,35.59
2023-05-10T03:32:29.855Z,35.59
2023-05-10T03:33:29.884Z,35.60
2023-05-10T03:34:30.237Z,35.61
2023-05-10T03:35:29.987Z,35.61
2023-05-10T03:36:30.001Z,35.59
2023-05-10T03:37:30.057Z,35.59
2023-05-10T03:38:30.660Z,35.63
2023-05-10T03:39:30.179Z,35.59
2023-05-10T03:40:30.258Z,35.63
2023-05-10T03:41:30.281Z,35.59
2023-05-10T03:42:30.362Z,35.60
2023-05-10T03:43:30.393Z,35.57
2023-05-10T03:44:30.440Z,35.56
2023-05-10T03:45:30.518Z,35.59
2023-05-10T03:46:30.586Z,35.64
2023-05-10T03:47:30.747Z,35.59
2023-05-10T03:48:30.695Z,35.60
2023-05-10T03:49:30.740Z,35.57
2023-05-10T03:50:30.749Z,35.57
2023-05-10T03:51:30.832Z,35.61
2023-05-10T03:52:30.892Z,35.61
2023-05-10T03:53:30.951Z,35.63
2023-05-10T03:54:31.210Z,35.63
2023-05-10T03:55:31.024Z,35.61
2023-05-10T03:56:31.071Z,35.59
2023-05-10T03:57:31.149Z,35.60
2023-05-10T03:58:31.184Z,35.61
2023-05-10T03:59:31.225Z,35.60
2023-05-10T04:00:31.305Z,35.61
2023-05-10T04:01:31.365Z,35.62
2023-05-10T04:02:31.595Z,35.64
2023-05-10T04:03:31.542Z,35.60
2023-05-10T04:04:31.516Z,35.60
2023-05-10T04:05:31.583Z,35.61
2023-05-10T04:06:31.697Z,35.66
2023-05-10T04:07:31.715Z,35.61
2023-05-10T04:08:31.772Z,35.64
2023-05-10T04:09:31.812Z,35.60
2023-05-10T04:10:31.850Z,35.61
2023-05-10T04:11:31.936Z,35.62
2023-05-10T04:12:32.008Z,35.62
2023-05-10T04:13:32.051Z,35.60
2023-05-10T04:14:32.116Z,35.62
2023-05-10T04:15:32.159Z,35.61
2023-05-10T04:16:32.218Z,35.61
2023-05-10T04:17:32.319Z,35.60
2023-05-10T04:18:32.334Z,35.64
2023-05-10T04:19:32.345Z,35.63
2023-05-10T04:20:32.424Z,35.61
2023-05-10T04:21:32.482Z,35.62
2023-05-10T04:22:32.516Z,35.60
2023-05-10T04:23:32.601Z,35.64
2023-05-10T04:24:32.731Z,35.65
2023-05-10T04:25:32.665Z,35.64
2023-05-10T04:26:32.756Z,35.61
2023-05-10T04:27:32.811Z,35.59
2023-05-10T04:28:32.877Z,35.56
2023-05-10T04:29:32.949Z,35.64
2023-05-10T04:30:33.016Z,35.60
2023-05-10T04:31:33.049Z,35.62
2023-05-10T04:32:33.121Z,35.61
2023-05-10T04:33:33.130Z,35.60
2023-05-10T04:34:33.275Z,35.61
2023-05-10T04:35:33.269Z,35.61
2023-05-10T04:36:33.333Z,35.58
2023-05-10T04:37:33.431Z,35.61
2023-05-10T04:38:33.419Z,35.59
2023-05-10T04:39:33.475Z,35.60
2023-05-10T04:40:33.542Z,35.60
2023-05-10T04:41:33.572Z,35.57
2023-05-10T04:42:33.647Z,35.57
2023-05-10T04:43:33.694Z,35.58
2023-05-10T04:44:34.237Z,35.61
2023-05-10T04:45:33.798Z,35.57
2023-05-10T04:46:33.918Z,35.61
2023-05-10T04:47:33.949Z,35.56
2023-05-10T04:48:33.962Z,35.61
2023-05-10T04:49:34.241Z,35.61
2023-05-10T04:50:34.087Z,35.63
2023-05-10T04:51:34.157Z,35.58
2023-05-10T04:52:34.197Z,35.61
2023-05-10T04:53:34.276Z,35.59
2023-05-10T04:54:34.274Z,35.61
2023-05-10T04:55:34.326Z,35.60
2023-05-10T04:56:34.471Z,35.58
2023-05-10T04:57:34.445Z,35.61
2023-05-10T04:58:34.471Z,35.61
2023-05-10T04:59:34.561Z,35.63
2023-05-10T05:00:34.587Z,35.58
2023-05-10T05:01:34.768Z,35.57
2023-05-10T05:02:34.767Z,35.60
2023-05-10T05:03:34.866Z,35.61
2023-05-10T05:04:35.287Z,35.58
2023-05-10T05:05:34.860Z,35.61
2023-05-10T05:06:34.964Z,35.61
2023-05-10T05:07:35.079Z,35.62
2023-05-10T05:08:35.073Z,35.57
2023-05-10T05:09:35.097Z,35.57
2023-05-10T05:10:35.141Z,35.61
2023-05-10T05:11:35.197Z,35.60
2023-05-10T05:12:35.274Z,35.60
2023-05-10T05:13:35.314Z,35.57
2023-05-10T05:14:35.386Z,35.60
2023-05-10T05:15:35.443Z,35.58
2023-05-10T05:16:35.614Z,35.57
2023-05-10T05:17:35.528Z,35.59
2023-05-10T05:18:35.567Z,35.58
2023-05-10T05:19:35.631Z,35.60
2023-05-10T05:20:35.699Z,35.58
2023-05-10T05:21:35.722Z,35.57
2023-05-10T05:22:35.776Z,35.60
2023-05-10T05:23:35.891Z,35.57
2023-05-10T05:24:35.893Z,35.55
2023-05-10T05:25:36.037Z,35.58
2023-05-10T05:26:36.025Z,35.58
2023-05-10T05:27:36.085Z,35.55
2023-05-10T05:28:36.145Z,35.57
2023-05-10T05:29:36.241Z,35.55
2023-05-10T05:30:36.281Z,35.59
2023-05-10T05:31:36.373Z,35.60
2023-05-10T05:32:36.377Z,35.57
2023-05-10T05:33:36.426Z,35.55
2023-05-10T05:34:36.513Z,35.61
2023-05-10T05:35:36.554Z,35.58
2023-05-10T05:36:37.699Z,35.58
2023-05-10T05:37:36.686Z,35.57
2023-05-10T05:38:36.712Z,35.61
2023-05-10T05:39:36.800Z,35.57
2023-05-10T05:40:36.819Z,35.58
2023-05-10T05:41:36.921Z,35.58
2023-05-10T05:42:36.941Z,35.55
2023-05-10T05:43:38.343Z,35.58
2023-05-10T05:44:37.264Z,35.56
2023-05-10T05:45:37.126Z,35.57
2023-05-10T05:46:37.128Z,35.58
2023-05-10T05:47:37.247Z,35.58
2023-05-10T05:48:38.262Z,35.53
2023-05-10T05:49:37.771Z,35.54
2023-05-10T05:50:37.417Z,35.58
2023-05-10T05:51:37.442Z,35.58
2023-05-10T05:52:37.491Z,35.55
2023-05-10T05:53:37.550Z,35.53
2023-05-10T05:54:37.789Z,35.55
2023-05-10T05:55:37.655Z,35.57
2023-05-10T05:56:37.734Z,35.57
2023-05-10T05:57:37.807Z,35.57
2023-05-10T05:58:37.855Z,35.54
2023-05-10T05:59:38.265Z,35.57
2023-05-10T06:00:37.942Z,35.59
2023-05-10T06:01:38.034Z,35.72
2023-05-10T06:02:38.219Z,35.85
2023-05-10T06:03:38.175Z,35.70
2023-05-10T06:04:38.266Z,35.95
2023-05-10T06:05:38.235Z,35.82
2023-05-10T06:06:38.299Z,35.99
2023-05-10T06:07:38.374Z,35.97
2023-05-10T06:08:38.420Z,35.77
2023-05-10T06:09:38.469Z,35.74
2023-05-10T06:10:38.521Z,35.69
2023-05-10T06:11:38.684Z,35.77
2023-05-10T06:12:38.619Z,35.69
2023-05-10T06:13:38.704Z,35.73
2023-05-10T06:14:38.753Z,36.15
2023-05-10T06:15:38.815Z,35.81
2023-05-10T06:16:38.956Z,35.85
2023-05-10T06:17:38.990Z,36.01
2023-05-10T06:18:39.016Z,35.96
2023-05-10T06:19:39.066Z,35.97
2023-05-10T06:20:39.121Z,35.92
2023-05-10T06:21:39.140Z,36.00
2023-05-10T06:22:39.225Z,36.03
2023-05-10T06:23:39.249Z,36.02
2023-05-10T06:24:39.777Z,36.02
2023-05-10T06:25:39.416Z,36.10
2023-05-10T06:26:39.461Z,36.18
2023-05-10T06:27:39.420Z,36.16
2023-05-10T06:28:39.498Z,36.27
2023-05-10T06:29:39.536Z,36.23
2023-05-10T06:30:39.585Z,36.21
2023-05-10T06:31:39.670Z,36.23
2023-05-10T06:32:39.753Z,36.21
2023-05-10T06:33:39.714Z,36.31
2023-05-10T06:34:39.781Z,36.27
2023-05-10T06:35:39.807Z,36.18
2023-05-10T06:36:39.861Z,36.32
2023-05-10T06:37:39.908Z,36.34
2023-05-10T06:38:39.935Z,36.30
2023-05-10T06:39:40.017Z,36.33
2023-05-10T06:40:40.048Z,36.37
2023-05-10T06:41:40.135Z,36.40
2023-05-10T06:42:40.154Z,36.32
2023-05-10T06:43:40.173Z,36.33
2023-05-10T06:44:40.223Z,36.39
2023-05-10T06:45:40.254Z,36.31
2023-05-10T06:46:40.346Z,36.36
2023-05-10T06:47:40.348Z,36.42
2023-05-10T06:48:40.383Z,36.36
2023-05-10T06:49:40.425Z,36.42
2023-05-10T06:50:40.470Z,36.35
2023-05-10T06:51:40.510Z,36.41
2023-05-10T06:52:40.537Z,36.36
2023-05-10T06:53:40.559Z,36.48
2023-05-10T06:54:40.799Z,36.42
2023-05-10T06:55:40.640Z,36.43
2023-05-10T06:56:40.719Z,36.44
2023-05-10T06:57:40.732Z,36.51
2023-05-10T06:58:40.908Z,36.61
2023-05-10T06:59:40.884Z,36.56
2023-05-10T07:00:40.896Z,36.55
2023-05-10T07:01:40.936Z,36.56
2023-05-10T07:02:40.952Z,36.50
2023-05-10T07:03:40.983Z,36.52
2023-05-10T07:04:41.074Z,36.53
2023-05-10T07:05:41.144Z,36.54
2023-05-10T07:06:41.075Z,36.52
2023-05-10T07:07:41.138Z,36.55
2023-05-10T07:08:41.158Z,36.61
2023-05-10T07:09:41.320Z,36.59
2023-05-10T07:10:41.227Z,36.57
2023-05-10T07:11:41.261Z,36.61
2023-05-10T07:12:41.327Z,36.58
2023-05-10T07:13:41.347Z,36.60
2023-05-10T07:14:41.357Z,36.61
2023-05-10T07:15:41.366Z,36.66
2023-05-10T07:16:41.449Z,36.57
2023-05-10T07:17:43.261Z,36.59
2023-05-10T07:18:41.446Z,36.61
2023-05-10T07:19:41.421Z,36.61
2023-05-10T07:20:41.422Z,36.60
2023-05-10T07:21:41.391Z,36.69
2023-05-10T07:22:41.409Z,36.65
2023-05-10T07:23:42.944Z,36.67
2023-05-10T07:24:41.793Z,36.66
2023-05-10T07:25:41.377Z,36.73
2023-05-10T07:26:41.386Z,36.70
2023-05-10T07:27:41.349Z,36.65
2023-05-10T07:28:41.370Z,36.73
2023-05-10T07:29:41.341Z,36.60
2023-05-10T07:30:41.330Z,36.80
2023-05-10T07:31:41.414Z,36.88
2023-05-10T07:32:41.337Z,37.06
2023-05-10T07:33:41.327Z,36.80
2023-05-10T07:34:41.330Z,36.88
2023-05-10T07:35:41.301Z,36.94
2023-05-10T07:36:41.322Z,36.92
2023-05-10T07:37:41.304Z,36.96
2023-05-10T07:38:41.276Z,37.05
2023-05-10T07:39:41.284Z,36.94
2023-05-10T07:40:41.296Z,36.90
2023-05-10T07:41:41.266Z,36.84
2023-05-10T07:42:41.252Z,36.94
2023-05-10T07:43:41.245Z,36.92
2023-05-10T07:44:41.296Z,36.97
2023-05-10T07:45:41.244Z,36.97
2023-05-10T07:46:41.362Z,36.94
2023-05-10T07:47:41.259Z,36.95
2023-05-10T07:48:41.206Z,36.98
2023-05-10T07:49:41.298Z,36.88
2023-05-10T07:50:41.218Z,36.92
2023-05-10T07:51:41.262Z,36.91
2023-05-10T07:52:41.178Z,36.89
2023-05-10T07:53:41.178Z,36.88
2023-05-10T07:54:41.197Z,36.86
2023-05-10T07:55:41.177Z,36.92
2023-05-10T07:56:41.200Z,36.92
2023-05-10T07:57:41.192Z,36.90
2023-05-10T07:58:41.149Z,36.96
2023-05-10T07:59:41.405Z,36.89
2023-05-10T08:00:41.140Z,36.94
2023-05-10T08:01:41.137Z,36.91
2023-05-10T08:02:41.278Z,36.90
2023-05-10T08:03:41.320Z,36.92
2023-05-10T08:04:41.331Z,36.87
2023-05-10T08:05:41.113Z,36.91
2023-05-10T08:06:41.215Z,36.87
2023-05-10T08:07:41.082Z,36.95
2023-05-10T08:08:41.098Z,36.93
2023-05-10T08:09:41.316Z,36.93
2023-05-10T08:10:41.078Z,37.11
2023-05-10T08:11:41.082Z,36.93
2023-05-10T08:12:41.080Z,36.94
2023-05-10T08:13:41.051Z,36.94
2023-05-10T08:14:41.322Z,36.99
2023-05-10T08:15:41.084Z,36.96
2023-05-10T08:16:41.019Z,36.99
2023-05-10T08:17:41.049Z,37.08
2023-05-10T08:18:41.227Z,37.12
2023-05-10T08:19:41.017Z,37.03
2023-05-10T08:20:41.310Z,37.00
2023-05-10T08:21:41.014Z,37.35
2023-05-10T08:22:41.014Z,37.51
2023-05-10T08:23:41.064Z,37.50
2023-05-10T08:24:40.985Z,37.36
2023-05-10T08:25:41.294Z,37.31
2023-05-10T08:26:40.965Z,37.37
2023-05-10T08:27:40.992Z,37.50
2023-05-10T08:28:41.019Z,37.45
2023-05-10T08:29:49.473Z,37.46
2023-05-10T08:30:42.326Z,37.46
2023-05-10T08:31:41.092Z,37.67
2023-05-10T08:32:41.110Z,37.63
2023-05-10T08:33:42.301Z,37.82
2023-05-10T08:34:41.021Z,37.94
2023-05-10T08:35:41.298Z,37.77
2023-05-10T08:36:41.007Z,37.77
2023-05-10T08:37:41.012Z,37.84
2023-05-10T08:38:41.024Z,37.75
2023-05-10T08:39:41.050Z,37.63
2023-05-10T08:40:40.965Z,37.64
2023-05-10T08:41:40.984Z,37.64
2023-05-10T08:42:40.939Z,37.62
2023-05-10T08:43:40.954Z,37.52
2023-05-10T08:44:40.960Z,37.53
2023-05-10T08:45:40.980Z,37.61
2023-05-10T08:46:41.031Z,37.58
2023-05-10T08:47:40.944Z,37.54
2023-05-10T08:48:40.921Z,37.54
2023-05-10T08:49:40.927Z,37.58
2023-05-10T08:50:40.908Z,37.48
2023-05-10T08:51:41.786Z,37.54
2023-05-10T08:52:40.905Z,37.58
2023-05-10T08:53:40.884Z,37.54
2023-05-10T08:54:40.915Z,37.56
2023-05-10T08:55:40.881Z,37.51
2023-05-10T08:56:40.851Z,37.48
2023-05-10T08:57:40.911Z,37.48
2023-05-10T08:58:40.891Z,37.47
2023-05-10T08:59:40.858Z,37.48
2023-05-10T09:00:40.855Z,37.50
2023-05-10T09:01:40.881Z,37.46
2023-05-10T09:02:40.886Z,37.59
2023-05-10T09:03:40.866Z,37.67
2023-05-10T09:04:40.891Z,37.57
2023-05-10T09:05:40.828Z,37.78
2023-05-10T09:06:40.946Z,37.69
2023-05-10T09:07:40.807Z,37.66
2023-05-10T09:08:40.774Z,37.66
2023-05-10T09:09:40.797Z,37.67
2023-05-10T09:10:40.807Z,37.64
2023-05-10T09:11:40.777Z,37.64
2023-05-10T09:12:40.788Z,37.63
2023-05-10T09:13:41.346Z,37.56
2023-05-10T09:14:40.784Z,37.59
2023-05-10T09:15:40.850Z,37.65
2023-05-10T09:16:40.759Z,37.64
2023-05-10T09:17:40.860Z,37.59
2023-05-10T09:18:40.768Z,37.57
2023-05-10T09:19:40.770Z,37.51
2023-05-10T09:20:40.802Z,37.57
2023-05-10T09:21:40.845Z,37.50
2023-05-10T09:22:40.868Z,37.50
2023-05-10T09:23:40.873Z,37.56
2023-05-10T09:24:40.866Z,37.53
2023-05-10T09:25:40.901Z,37.59
2023-05-10T09:26:40.884Z,37.57
2023-05-10T09:27:40.946Z,37.54
2023-05-10T09:28:40.993Z,37.52
2023-05-10T09:29:41.013Z,37.48
2023-05-10T09:30:41.050Z,37.52
2023-05-10T09:31:41.028Z,37.51
2023-05-10T09:32:41.057Z,37.52
2023-05-10T09:33:41.045Z,37.47
2023-05-10T09:34:41.116Z,37.50
2023-05-10T09:35:41.359Z,37.43
2023-05-10T09:36:41.102Z,37.50
2023-05-10T09:37:41.118Z,37.47
2023-05-10T09:38:41.138Z,37.48
2023-05-10T09:39:41.149Z,37.50
2023-05-10T09:40:41.359Z,37.50
2023-05-10T09:41:41.194Z,37.49
2023-05-10T09:42:41.194Z,37.46
2023-05-10T09:43:41.253Z,37.51
2023-05-10T09:44:41.235Z,37.51
2023-05-10T09:45:41.348Z,37.62
2023-05-10T09:46:41.334Z,37.59
2023-05-10T09:47:41.322Z,37.50
2023-05-10T09:48:41.306Z,37.62
2023-05-10T09:49:41.338Z,37.62
2023-05-10T09:50:41.369Z,37.59
2023-05-10T09:51:41.335Z,37.54
2023-05-10T09:52:41.368Z,37.57
2023-05-10T09:53:41.387Z,37.51
2023-05-10T09:54:41.405Z,37.54
2023-05-10T09:55:41.889Z,37.52
2023-05-10T09:56:41.462Z,37.51
2023-05-10T09:57:41.412Z,37.51
2023-05-10T09:58:41.451Z,37.49
2023-05-10T09:59:41.439Z,37.52
2023-05-10T10:00:41.442Z,37.47
2023-05-10T10:01:41.677Z,37.52
2023-05-10T10:02:41.507Z,37.51
2023-05-10T10:03:41.460Z,37.54
2023-05-10T10:04:41.562Z,37.52
2023-05-10T10:05:41.493Z,37.53
2023-05-10T10:06:41.507Z,37.53
2023-05-10T10:07:41.516Z,37.57
2023-05-10T10:08:41.513Z,37.56
2023-05-10T10:09:41.553Z,37.55
2023-05-10T10:10:41.657Z,37.52
2023-05-10T10:11:41.581Z,37.52
2023-05-10T10:12:41.583Z,37.51
2023-05-10T10:13:41.590Z,37.50
2023-05-10T10:14:41.587Z,37.52
2023-05-10T10:15:41.869Z,37.51
2023-05-10T10:16:55.522Z,37.55
2023-05-10T10:17:42.692Z,37.58
2023-05-10T10:18:41.672Z,37.53
2023-05-10T10:19:41.623Z,37.60
2023-05-10T10:20:41.855Z,37.52
2023-05-10T10:21:41.606Z,37.47
2023-05-10T10:22:41.612Z,37.52
2023-05-10T10:23:41.596Z,37.49
2023-05-10T10:24:42.576Z,37.54
2023-05-10T10:25:41.872Z,37.54
2023-05-10T10:26:41.540Z,37.52
2023-05-10T10:27:41.572Z,37.52
2023-05-10T10:28:41.559Z,37.54
2023-05-10T10:29:41.535Z,37.59
2023-05-10T10:30:41.904Z,37.55
2023-05-10T10:31:41.591Z,37.57
2023-05-10T10:32:41.536Z,37.51
2023-05-10T10:33:41.522Z,37.59
2023-05-10T10:34:41.512Z,37.55
2023-05-10T10:35:41.493Z,37.57
2023-05-10T10:36:41.492Z,37.54
2023-05-10T10:37:41.461Z,37.54
2023-05-10T10:38:41.459Z,37.52
2023-05-10T10:39:41.483Z,37.55
2023-05-10T10:40:41.859Z,37.52
2023-05-10T10:41:41.444Z,37.62
2023-05-10T10:42:41.457Z,37.54
2023-05-10T10:43:41.469Z,37.54
2023-05-10T10:44:41.442Z,37.56
2023-05-10T10:45:42.166Z,37.49
2023-05-10T10:46:41.426Z,37.58
2023-05-10T10:47:41.440Z,37.59
2023-05-10T10:48:41.403Z,37.59
2023-05-10T10:49:41.400Z,37.59
2023-05-10T10:50:41.896Z,37.57
2023-05-10T10:51:41.464Z,37.58
2023-05-10T10:52:41.397Z,37.62
2023-05-10T10:53:41.409Z,37.60
2023-05-10T10:54:41.382Z,37.57
2023-05-10T10:55:41.413Z,37.56
2023-05-10T10:56:41.361Z,37.62
2023-05-10T10:57:41.401Z,37.56
2023-05-10T10:58:41.508Z,37.54
2023-05-10T10:59:41.352Z,37.58
2023-05-10T11:00:41.368Z,37.57
2023-05-10T11:01:41.430Z,37.52
2023-05-10T11:02:41.339Z,37.59
2023-05-10T11:03:41.321Z,37.59
2023-05-10T11:04:41.449Z,37.65
2023-05-10T11:05:41.328Z,37.57
2023-05-10T11:06:41.322Z,37.62
2023-05-10T11:07:41.307Z,37.86
2023-05-10T11:08:41.303Z,38.11
2023-05-10T11:09:41.293Z,38.16
2023-05-10T11:10:41.342Z,38.11
2023-05-10T11:11:41.388Z,38.06
2023-05-10T11:12:41.330Z,38.07
2023-05-10T11:13:41.317Z,37.95
2023-05-10T11:14:41.347Z,38.00
2023-05-10T11:15:41.356Z,37.99
2023-05-10T11:16:41.384Z,38.31
2023-05-10T11:17:41.404Z,38.49
2023-05-10T11:18:41.413Z,38.24
2023-05-10T11:19:41.385Z,38.31
2023-05-10T11:20:41.453Z,38.42
2023-05-10T11:21:41.885Z,38.49
2023-05-10T11:22:41.403Z,38.36
2023-05-10T11:23:41.431Z,38.41
2023-05-10T11:24:41.445Z,38.44
2023-05-10T11:25:41.477Z,38.54
2023-05-10T11:26:41.860Z,38.49
2023-05-10T11:27:41.539Z,38.54
2023-05-10T11:28:41.554Z,38.43
2023-05-10T11:29:41.593Z,38.59
2023-05-10T11:30:41.688Z,38.48
2023-05-10T11:31:41.888Z,38.48
2023-05-10T11:32:41.688Z,38.42
2023-05-10T11:33:41.681Z,38.54
2023-05-10T11:34:41.712Z,38.45
2023-05-10T11:35:43.396Z,38.49
2023-05-10T11:36:41.912Z,38.41
2023-05-10T11:37:41.777Z,38.49
2023-05-10T11:38:41.790Z,38.41
2023-05-10T11:39:41.846Z,38.42
2023-05-10T11:40:41.918Z,38.45
2023-05-10T11:41:42.971Z,38.43
2023-05-10T11:42:41.892Z,38.46
2023-05-10T11:43:41.970Z,38.37
2023-05-10T11:44:41.950Z,38.39
2023-05-10T11:45:41.980Z,38.41
2023-05-10T11:46:42.477Z,38.37
2023-05-10T11:47:42.771Z,38.38
2023-05-10T11:48:42.091Z,38.43
2023-05-10T11:49:42.074Z,38.42
2023-05-10T11:50:42.089Z,38.35
2023-05-10T11:51:42.408Z,38.38
2023-05-10T11:52:42.125Z,38.36
2023-05-10T11:53:42.180Z,38.35
2023-05-10T11:54:42.163Z,38.31
2023-05-10T11:55:42.213Z,38.34
2023-05-10T11:56:42.389Z,38.36
2023-05-10T11:57:42.276Z,38.33
2023-05-10T11:58:42.326Z,38.30
2023-05-10T11:59:43.204Z,38.31
2023-05-10T12:00:42.389Z,38.35
2023-05-10T12:01:42.362Z,38.33
2023-05-10T12:02:42.487Z,38.29
2023-05-10T12:03:42.598Z,38.32
2023-05-10T12:04:42.562Z,38.31
2023-05-10T12:05:43.051Z,38.29
2023-05-10T12:06:42.963Z,38.41
2023-05-10T12:07:42.580Z,38.30
2023-05-10T12:08:42.623Z,38.33
2023-05-10T12:09:44.199Z,38.30
2023-05-10T12:10:42.698Z,38.29
2023-05-10T12:11:43.959Z,38.34
2023-05-10T12:12:42.836Z,38.33
2023-05-10T12:13:42.810Z,38.33
2023-05-10T12:14:42.841Z,38.33
2023-05-10T12:15:42.906Z,38.34
2023-05-10T12:16:43.009Z,38.31
2023-05-10T12:17:43.553Z,38.33
2023-05-10T12:18:43.075Z,38.33
2023-05-10T12:19:43.061Z,38.30
2023-05-10T12:20:43.107Z,38.26
2023-05-10T12:21:43.392Z,38.25
2023-05-10T12:22:43.256Z,38.29
2023-05-10T12:23:43.233Z,38.30
2023-05-10T12:24:43.299Z,38.22
2023-05-10T12:25:43.342Z,38.25
2023-05-10T12:26:43.362Z,38.34
2023-05-10T12:27:43.417Z,38.26
2023-05-10T12:28:43.466Z,38.27
2023-05-10T12:29:43.482Z,38.23
2023-05-10T12:30:43.533Z,38.25
2023-05-10T12:31:43.958Z,38.27
2023-05-10T12:32:43.650Z,38.23
2023-05-10T12:33:43.624Z,38.26
2023-05-10T12:34:43.687Z,38.23
2023-05-10T12:35:43.704Z,38.24
2023-05-10T12:36:43.902Z,38.20
2023-05-10T12:37:43.822Z,38.22
2023-05-10T12:38:43.831Z,38.18
2023-05-10T12:39:43.977Z,38.20
2023-05-10T12:40:43.951Z,38.19
2023-05-10T12:41:43.962Z,38.17
2023-05-10T12:42:44.018Z,38.22
2023-05-10T12:43:44.057Z,38.19
2023-05-10T12:44:44.145Z,38.22
2023-05-10T12:45:44.199Z,38.22
2023-05-10T12:46:44.191Z,38.11
2023-05-10T12:47:44.258Z,38.15
2023-05-10T12:48:44.274Z,38.17
2023-05-10T12:49:44.329Z,38.11
2023-05-10T12:50:44.354Z,38.14
2023-05-10T12:51:44.426Z,38.17
2023-05-10T12:52:44.582Z,38.12